Time;durP1;ratioP1;P1;durP2;ratioP2;P2;SDS_P1;SDS_P2;PMS_P1;PMS_P2;Temp;Humidity;BMP_temperature;BMP_pressure;BME280_temperature;BME280_humidity;BME280_pressure;Samples;Min_cycle;Max_cycle;Signal;HPM_P1;HPM_P2
2021/10/14 00:00:38;;;;;;;9.98;6.53;;;;;;;22.51;57.77;100981.16;1754798;80;21067;-58
2021/10/14 00:03:07;;;;;;;8.80;6.85;;;;;;;22.49;57.80;100979.87;1741638;81;21040;-58
2021/10/14 00:05:33;;;;;;;11.05;6.90;;;;;;;22.45;57.82;100985.22;1747713;81;21506;-57
2021/10/14 00:07:59;;;;;;;11.10;6.62;;;;;;;22.43;57.85;100986.13;1769015;78;21166;-58
2021/10/14 00:10:27;;;;;;;9.43;6.33;;;;;;;22.41;57.90;100989.79;1767294;79;21177;-57
2021/10/14 00:12:53;;;;;;;7.92;5.90;;;;;;;22.40;57.93;100984.59;1746486;80;21043;-58
2021/10/14 00:15:19;;;;;;;10.43;6.83;;;;;;;22.42;57.96;100989.22;1772128;79;21518;-57
2021/10/14 00:17:45;;;;;;;10.23;6.42;;;;;;;22.43;58.03;100990.86;1780575;79;20884;-58
2021/10/14 00:20:11;;;;;;;32.55;12.85;;;;;;;22.46;58.16;100993.80;1739829;81;21054;-58
2021/10/14 00:22:37;;;;;;;25.25;10.60;;;;;;;22.47;58.25;100994.61;1746350;80;21769;-58
2021/10/14 00:25:04;;;;;;;19.02;8.88;;;;;;;22.47;58.29;100994.61;1747552;81;21051;-57
2021/10/14 00:27:30;;;;;;;10.78;6.40;;;;;;;22.47;58.28;100994.05;1750510;80;21502;-58
2021/10/14 00:29:56;;;;;;;9.95;6.50;;;;;;;22.46;58.24;100991.59;1709712;81;21122;-58
2021/10/14 00:32:22;;;;;;;8.25;5.67;;;;;;;22.46;58.21;100988.81;1752131;80;20956;-58
2021/10/14 00:34:49;;;;;;;8.85;5.85;;;;;;;22.43;58.17;100988.09;1760481;79;21096;-58
2021/10/14 00:37:15;;;;;;;7.50;5.60;;;;;;;22.42;58.17;100989.22;1751396;80;21055;-58
2021/10/14 00:39:41;;;;;;;7.83;5.67;;;;;;;22.40;58.13;100983.20;1767322;80;21457;-58
2021/10/14 00:42:07;;;;;;;7.80;5.37;;;;;;;22.41;58.13;100983.42;1769524;80;20907;-58
2021/10/14 00:44:47;;;;;;;7.10;5.47;;;;;;;22.39;58.13;100978.80;1774007;79;21032;-57
2021/10/14 00:47:20;;;;;;;8.20;5.40;;;;;;;22.38;58.12;100984.09;1755970;80;21044;-58
2021/10/14 00:49:46;;;;;;;8.05;5.30;;;;;;;22.36;58.08;100987.20;1761808;79;21089;-57
2021/10/14 00:52:12;;;;;;;5.75;4.87;;;;;;;22.35;58.09;100994.45;1757618;80;21340;-58
2021/10/14 00:54:39;;;;;;;6.87;5.35;;;;;;;22.32;58.08;100994.51;1768318;80;21007;-57
2021/10/14 00:57:05;;;;;;;7.03;4.95;;;;;;;22.29;58.10;100996.55;1755751;80;21470;-58
2021/10/14 00:59:31;;;;;;;7.62;4.85;;;;;;;22.26;58.12;100995.82;1779146;79;21222;-58
2021/10/14 01:01:57;;;;;;;7.15;5.28;;;;;;;22.23;58.14;101007.56;1766268;79;21143;-58
2021/10/14 01:04:23;;;;;;;6.47;4.83;;;;;;;22.21;58.18;101009.27;1748646;80;21007;-57
2021/10/14 01:06:49;;;;;;;6.40;4.53;;;;;;;22.22;58.22;101001.77;1759312;80;20977;-58
2021/10/14 01:09:16;;;;;;;5.83;4.00;;;;;;;22.25;58.30;101003.88;1760936;79;21628;-57
2021/10/14 01:11:42;;;;;;;5.97;4.33;;;;;;;22.27;58.44;101008.55;1755206;79;21016;-58
2021/10/14 01:14:08;;;;;;;6.35;4.70;;;;;;;22.29;58.55;101009.02;1748458;81;21008;-58
2021/10/14 01:16:43;;;;;;;6.20;4.28;;;;;;;22.31;58.62;101015.89;1755802;81;21364;-58
2021/10/14 01:19:10;;;;;;;6.47;4.70;;;;;;;22.32;58.63;101013.34;1759914;80;21095;-58
2021/10/14 01:21:36;;;;;;;6.47;4.37;;;;;;;22.32;58.61;101023.61;1759072;80;21040;-58
2021/10/14 01:24:02;;;;;;;6.92;4.42;;;;;;;22.31;58.56;101033.91;1753643;79;21441;-58
2021/10/14 01:26:29;;;;;;;5.95;4.30;;;;;;;22.32;58.52;101033.31;1756184;81;21048;-59
2021/10/14 01:28:55;;;;;;;5.28;4.37;;;;;;;22.30;58.47;101037.00;1760214;79;21432;-58
2021/10/14 01:31:25;;;;;;;6.25;4.42;;;;;;;22.29;58.47;101046.44;1745650;79;20927;-58
2021/10/14 01:33:52;;;;;;;;;;;;;;;22.26;58.42;101045.71;1755114;80;21467;-58
2021/10/14 01:36:18;;;;;;;5.85;4.12;;;;;;;22.25;58.43;101044.89;1780374;79;20150;-58
2021/10/14 01:38:44;;;;;;;5.62;4.40;;;;;;;22.23;58.40;101044.41;1756019;79;21045;-58
2021/10/14 01:41:10;;;;;;;6.20;4.17;;;;;;;22.22;58.39;101046.93;1789445;79;22184;-58
2021/10/14 01:43:36;;;;;;;6.37;4.28;;;;;;;22.22;58.39;101055.25;1787473;79;21043;-58
2021/10/14 01:46:03;;;;;;;5.45;4.00;;;;;;;22.20;58.40;101055.30;1743787;81;21650;-58
2021/10/14 01:48:29;;;;;;;6.45;4.20;;;;;;;22.19;58.38;101057.85;1744383;81;21483;-59
2021/10/14 01:50:56;;;;;;;5.20;3.98;;;;;;;22.16;58.37;101065.41;1765566;80;21015;-59
2021/10/14 01:53:22;;;;;;;5.30;4.42;;;;;;;22.14;58.38;101072.67;1763609;80;21307;-59
2021/10/14 01:55:49;;;;;;;5.62;4.17;;;;;;;22.11;58.37;101071.91;1771893;79;21724;-58
2021/10/14 01:58:15;;;;;;;5.53;4.35;;;;;;;22.09;58.42;101071.42;1778149;79;21129;-58
2021/10/14 02:00:41;;;;;;;5.15;4.05;;;;;;;22.06;58.45;101074.84;1779707;79;21649;-58
2021/10/14 02:03:08;;;;;;;6.05;3.70;;;;;;;22.06;58.47;101071.25;1781563;79;21003;-59
2021/10/14 02:05:34;;;;;;;4.92;3.75;;;;;;;22.06;58.51;101067.92;1733736;81;21192;-58
2021/10/14 02:08:00;;;;;;;5.08;3.40;;;;;;;22.08;58.59;101071.17;1728761;81;20970;-58
2021/10/14 02:10:26;;;;;;;5.75;3.58;;;;;;;22.11;58.70;101070.52;1768300;79;21055;-58
2021/10/14 02:12:53;;;;;;;4.33;3.37;;;;;;;22.14;58.81;101076.01;1751690;80;20975;-59
2021/10/14 02:15:19;;;;;;;5.87;4.42;;;;;;;22.15;58.90;101077.05;1741127;79;21009;-58
2021/10/14 02:17:45;;;;;;;4.45;3.55;;;;;;;22.16;58.89;101073.15;1742943;81;22120;-58
2021/10/14 02:20:11;;;;;;;4.72;3.80;;;;;;;22.16;58.87;101072.33;1772182;79;21017;-59
2021/10/14 02:22:37;;;;;;;5.65;4.35;;;;;;;22.16;58.82;101075.09;1786809;79;21036;-59
2021/10/14 02:25:07;;;;;;;4.28;3.33;;;;;;;22.16;58.80;101080.64;1749480;80;21083;-58
2021/10/14 02:27:32;;;;;;;4.97;3.52;;;;;;;22.15;58.74;101080.42;1781642;79;21514;-58
2021/10/14 02:29:58;;;;;;;5.33;3.77;;;;;;;22.14;58.73;101080.98;1783443;79;22141;-58
2021/10/14 02:32:24;;;;;;;4.97;3.33;;;;;;;22.12;58.69;101083.81;1739320;81;20906;-58
2021/10/14 02:34:53;;;;;;;4.97;3.58;;;;;;;22.11;58.65;101081.61;1725780;81;20917;-58
2021/10/14 02:37:18;;;;;;;6.55;3.90;;;;;;;22.11;58.64;101087.71;1757627;80;21079;-58
2021/10/14 02:39:44;;;;;;;4.12;3.30;;;;;;;22.11;58.63;101086.33;1772774;79;20970;-58
2021/10/14 02:42:11;;;;;;;4.83;3.72;;;;;;;22.09;58.60;101089.44;1757965;79;21077;-58
2021/10/14 02:44:37;;;;;;;4.75;3.40;;;;;;;22.08;58.61;101086.41;1787345;79;21684;-58
2021/10/14 02:47:03;;;;;;;5.00;3.80;;;;;;;22.06;58.60;101090.66;1790353;79;20975;-58
2021/10/14 02:49:29;;;;;;;4.95;3.98;;;;;;;22.04;58.61;101084.59;1751643;80;21188;-58
2021/10/14 02:51:55;;;;;;;4.95;3.70;;;;;;;22.00;58.59;101091.36;1749575;80;21551;-58
2021/10/14 02:54:21;;;;;;;5.90;4.20;;;;;;;21.98;58.60;101086.69;1753988;80;22144;-58
2021/10/14 02:56:47;;;;;;;4.53;3.40;;;;;;;21.96;58.65;101087.59;1751617;80;20912;-58
2021/10/14 02:59:13;;;;;;;4.87;3.45;;;;;;;21.94;58.66;101087.08;1786232;79;20869;-59
2021/10/14 03:01:39;;;;;;;4.75;3.15;;;;;;;21.93;58.69;101087.42;1765171;80;21127;-59
2021/10/14 03:04:05;;;;;;;3.92;3.10;;;;;;;21.95;58.70;101087.34;1736647;80;21133;-57
2021/10/14 03:06:31;;;;;;;3.90;2.90;;;;;;;21.98;58.76;101095.00;1742279;80;21263;-58
2021/10/14 03:08:57;;;;;;;4.37;2.65;;;;;;;22.01;58.90;101091.61;1767387;79;21540;-58
2021/10/14 03:11:23;;;;;;;3.90;3.05;;;;;;;22.05;59.00;101109.80;1758665;80;20921;-59
2021/10/14 03:13:49;;;;;;;3.85;2.75;;;;;;;22.08;59.03;101117.45;1759673;79;20932;-58
2021/10/14 03:16:15;;;;;;;4.87;3.27;;;;;;;22.12;58.97;101112.34;1760870;79;20959;-59
2021/10/14 03:18:42;;;;;;;3.95;3.17;;;;;;;22.16;58.92;101106.97;1759486;79;21188;-58
2021/10/14 03:21:08;;;;;;;3.75;3.02;;;;;;;22.18;58.82;101109.69;1750251;81;21068;-59
2021/10/14 03:23:34;;;;;;;3.47;2.70;;;;;;;22.22;58.75;101107.08;1757431;80;21091;-58
2021/10/14 03:26:04;;;;;;;4.03;3.22;;;;;;;22.24;58.63;101106.17;1762462;79;21074;-59
2021/10/14 03:28:30;;;;;;;4.17;2.85;;;;;;;;;;1755263;80;21080;-58
2021/10/14 03:30:57;;;;;;;3.83;2.85;;;;;;;22.30;58.42;101120.15;1746557;80;21154;-58
2021/10/14 03:33:23;;;;;;;4.08;2.67;;;;;;;22.33;58.34;101124.48;1752142;79;21127;-58
2021/10/14 03:35:49;;;;;;;3.35;2.58;;;;;;;22.36;58.22;101115.28;1756121;80;21075;-58
2021/10/14 03:38:15;;;;;;;3.35;2.30;;;;;;;22.39;58.13;101119.61;1761809;79;21082;-57
2021/10/14 03:40:41;;;;;;;3.35;2.58;;;;;;;22.41;58.05;101116.49;1761210;80;20893;-57
2021/10/14 03:43:08;;;;;;;3.40;2.58;;;;;;;22.42;57.96;101125.89;1760818;79;21111;-59
2021/10/14 03:45:34;;;;;;;4.15;3.00;;;;;;;22.41;57.93;101127.02;1754801;80;20940;-58
2021/10/14 03:48:00;;;;;;;3.90;2.52;;;;;;;22.43;57.87;101131.69;1749477;80;21051;-58
2021/10/14 03:50:26;;;;;;;2.87;2.10;;;;;;;22.44;57.83;101140.83;1759177;80;21646;-58
2021/10/14 03:52:52;;;;;;;4.35;2.50;;;;;;;22.46;57.80;101144.08;1741915;79;21535;-57
2021/10/14 03:55:18;;;;;;;2.60;2.10;;;;;;;22.45;57.76;101137.71;1759221;80;21331;-58
2021/10/14 03:57:44;;;;;;;3.00;2.00;;;;;;;22.46;57.74;101137.14;1756795;79;21009;-57
2021/10/14 04:00:12;;;;;;;2.47;1.85;;;;;;;22.47;57.73;101132.67;1762210;80;20983;-58
2021/10/14 04:02:38;;;;;;;2.65;1.47;;;;;;;22.49;57.70;101138.70;1760754;79;21036;-58
2021/10/14 04:05:05;;;;;;;2.12;1.67;;;;;;;22.51;57.67;101148.91;1753129;80;20921;-58
2021/10/14 04:07:31;;;;;;;2.98;1.70;;;;;;;22.54;57.63;101151.59;1753743;80;21179;-58
2021/10/14 04:09:57;;;;;;;3.58;1.95;;;;;;;22.58;57.60;101151.20;1753759;80;21708;-58
2021/10/14 04:12:23;;;;;;;2.02;1.50;;;;;;;22.64;57.62;101152.13;1751524;80;21047;-58
2021/10/14 04:14:49;;;;;;;3.27;1.77;;;;;;;22.70;57.70;101155.01;1757986;80;20968;-58
2021/10/14 04:17:15;;;;;;;2.70;1.95;;;;;;;22.75;57.78;101153.47;1759132;79;21617;-58
2021/10/14 04:19:41;;;;;;;3.00;2.20;;;;;;;22.79;57.82;101157.01;1749117;80;21334;-58
2021/10/14 04:22:07;;;;;;;3.37;2.10;;;;;;;22.84;57.79;101165.16;1756151;80;21549;-58
2021/10/14 04:24:33;;;;;;;3.85;2.30;;;;;;;22.87;57.72;101167.30;1755021;80;21028;-58
2021/10/14 04:26:59;;;;;;;3.08;2.27;;;;;;;22.90;57.65;101177.73;1754781;80;21088;-58
2021/10/14 04:29:26;;;;;;;2.33;1.87;;;;;;;22.93;57.54;101180.68;1758088;80;21027;-58
2021/10/14 04:31:52;;;;;;;2.95;2.25;;;;;;;22.94;57.45;101187.87;1759995;79;21155;-58
2021/10/14 04:34:18;;;;;;;2.98;2.40;;;;;;;22.96;57.38;101191.12;1755837;80;21256;-58
2021/10/14 04:36:44;;;;;;;2.60;2.10;;;;;;;22.98;57.33;101197.74;1761007;80;21107;-58
2021/10/14 04:39:11;;;;;;;2.70;1.90;;;;;;;22.99;57.26;101198.81;1725311;82;21088;-58
2021/10/14 04:41:37;;;;;;;2.30;1.37;;;;;;;23.01;57.19;101199.86;1736902;81;21082;-58
2021/10/14 04:44:04;;;;;;;2.98;2.10;;;;;;;23.02;57.14;101212.61;1741394;80;21302;-57
2021/10/14 04:46:30;;;;;;;3.02;2.20;;;;;;;23.02;57.09;101223.70;1726747;81;21023;-58
2021/10/14 04:48:57;;;;;;;2.45;1.87;;;;;;;23.01;57.05;101222.06;1773359;79;21503;-58
2021/10/14 04:51:23;;;;;;;2.22;1.60;;;;;;;23.00;57.01;101233.73;1784151;78;20955;-58
2021/10/14 04:53:49;;;;;;;3.52;2.10;;;;;;;23.00;57.00;101239.28;1772415;80;21641;-58
2021/10/14 04:56:15;;;;;;;2.22;1.92;;;;;;;22.99;57.00;101239.63;1777494;79;21450;-58
2021/10/14 04:58:41;;;;;;;2.50;1.85;;;;;;;22.97;56.99;101237.72;1763962;79;20948;-58
2021/10/14 05:01:07;;;;;;;2.80;2.08;;;;;;;22.97;56.98;101251.60;1753197;80;21083;-58
2021/10/14 05:03:34;;;;;;;4.55;2.20;;;;;;;22.96;57.00;101258.28;1768925;80;20890;-58
2021/10/14 05:06:00;;;;;;;2.33;1.82;;;;;;;22.95;57.04;101256.67;1767339;79;21427;-58
2021/10/14 05:08:26;;;;;;;2.72;1.87;;;;;;;22.95;57.07;101256.67;1759040;79;21185;-57
2021/10/14 05:10:52;;;;;;;3.87;2.47;;;;;;;22.96;57.08;101263.27;1751692;81;21696;-58
2021/10/14 05:13:18;;;;;;;3.52;2.08;;;;;;;22.98;57.14;101260.18;1744109;81;21051;-58
2021/10/14 05:15:45;;;;;;;3.50;2.27;;;;;;;23.01;57.25;101262.30;1753582;79;21542;-58
2021/10/14 05:18:11;;;;;;;3.10;2.22;;;;;;;23.03;57.36;101264.20;1755505;80;21061;-58
2021/10/14 05:20:37;;;;;;;3.67;2.50;;;;;;;23.03;57.39;101265.02;1757482;80;21121;-58
2021/10/14 05:23:03;;;;;;;4.15;2.35;;;;;;;23.04;57.39;101254.73;1755350;80;21098;-58
2021/10/14 05:25:29;;;;;;;4.97;2.77;;;;;;;23.04;57.41;101259.69;1764440;80;21108;-57
2021/10/14 05:27:55;;;;;;;4.47;2.83;;;;;;;23.04;57.39;101268.61;1773179;79;21594;-58
2021/10/14 05:30:21;;;;;;;3.75;2.40;;;;;;;23.02;57.40;101263.38;1758965;80;21001;-58
2021/10/14 05:32:47;;;;;;;4.72;2.80;;;;;;;23.01;57.40;101268.67;1764133;80;21361;-58
2021/10/14 05:35:13;;;;;;;3.47;2.30;;;;;;;22.99;57.42;101268.19;1756547;79;21091;-57
2021/10/14 05:37:39;;;;;;;4.22;2.72;;;;;;;22.99;57.43;101270.14;1757018;79;20913;-57
2021/10/14 05:40:06;;;;;;;5.03;2.60;;;;;;;22.97;57.42;101266.30;1745509;79;21641;-58
2021/10/14 05:42:32;;;;;;;4.37;2.98;;;;;;;22.96;57.43;101269.38;1774437;79;21104;-58
2021/10/14 05:44:58;;;;;;;3.70;2.52;;;;;;;22.94;57.47;101271.67;1776248;78;21343;-57
2021/10/14 05:47:25;;;;;;;3.90;2.55;;;;;;;22.92;57.50;101273.94;1752168;80;21444;-57
2021/10/14 05:49:51;;;;;;;4.90;2.62;;;;;;;22.89;57.57;101276.80;1768693;78;20971;-57
2021/10/14 05:52:17;;;;;;;4.42;2.85;;;;;;;22.87;57.63;101273.55;1750338;80;21044;-57
2021/10/14 05:54:43;;;;;;;4.83;2.80;;;;;;;22.84;57.68;101277.52;1742268;80;21458;-57
2021/10/14 05:57:09;;;;;;;5.28;2.70;;;;;;;22.85;57.74;101281.92;1749748;80;21276;-58
2021/10/14 05:59:35;;;;;;;3.15;2.27;;;;;;;22.86;57.88;101280.23;1760574;79;21167;-58
2021/10/14 06:02:01;;;;;;;3.75;2.42;;;;;;;22.86;57.99;101278.84;1745344;80;20925;-57
2021/10/14 06:04:27;;;;;;;3.22;2.12;;;;;;;22.87;58.10;101287.42;1764495;78;20911;-57
2021/10/14 06:06:53;;;;;;;3.87;2.35;;;;;;;22.87;58.16;101297.13;1788147;78;21583;-57
2021/10/14 06:09:19;;;;;;;4.17;2.55;;;;;;;22.88;58.18;101302.91;1751029;80;21338;-57
2021/10/14 06:11:45;;;;;;;3.52;2.75;;;;;;;22.88;58.17;101297.92;1730101;80;21155;-58
2021/10/14 06:14:11;;;;;;;3.33;2.52;;;;;;;22.87;58.14;101296.31;1735058;80;21104;-57
2021/10/14 06:16:37;;;;;;;3.55;2.42;;;;;;;22.88;58.13;101291.81;1743888;80;20982;-57
2021/10/14 06:19:03;;;;;;;3.37;2.33;;;;;;;22.88;58.11;101297.36;1782256;79;20988;-57
2021/10/14 06:21:29;;;;;;;3.58;2.30;;;;;;;22.86;58.10;101300.22;1755866;79;23331;-57
2021/10/14 06:23:55;;;;;;;4.37;2.70;;;;;;;22.85;58.08;101305.52;1738466;80;20940;-57
2021/10/14 06:26:21;;;;;;;4.47;2.77;;;;;;;22.82;58.09;101311.14;1741988;80;21664;-56
2021/10/14 06:28:48;;;;;;;5.28;2.80;;;;;;;22.80;58.09;101313.41;1747299;80;20904;-58
2021/10/14 06:31:14;;;;;;;3.75;2.50;;;;;;;22.78;58.09;101318.47;1756632;80;21084;-57
2021/10/14 06:33:40;;;;;;;8.68;2.50;;;;;;;22.75;58.09;101315.75;1748771;79;21500;-57
2021/10/14 06:36:06;;;;;;;4.30;2.52;;;;;;;22.74;58.14;101321.64;1756171;79;20897;-58
2021/10/14 06:38:32;;;;;;;3.00;2.35;;;;;;;22.71;58.17;101324.46;1733134;80;21091;-58
2021/10/14 06:40:58;;;;;;;3.95;3.12;;;;;;;22.68;58.19;101326.47;1755234;79;20873;-59
2021/10/14 06:43:24;;;;;;;8.78;3.80;;;;;;;22.68;58.22;101324.26;1750883;79;21636;-58
2021/10/14 06:45:50;;;;;;;8.63;3.60;;;;;;;22.71;58.25;101331.39;1751743;79;21236;-60
2021/10/14 06:48:16;;;;;;;10.70;4.20;;;;;;;22.73;58.33;101336.08;1754607;80;21089;-61
2021/10/14 06:50:42;;;;;;;13.28;4.45;;;;;;;22.76;58.45;101342.92;1736609;80;20984;-59
2021/10/14 06:53:10;;;;;;;11.03;4.20;;;;;;;22.78;58.56;101344.00;1749956;79;20905;-59
2021/10/14 06:55:40;;;;;;;6.85;3.02;;;;;;;22.78;58.63;101345.39;1757211;79;21098;-59
2021/10/14 06:58:06;;;;;;;5.15;3.00;;;;;;;22.78;58.65;101346.78;1728654;81;21987;-57
2021/10/14 07:00:33;;;;;;;5.25;2.52;;;;;;;22.77;58.63;101347.34;1740941;79;21130;-57
2021/10/14 07:02:59;;;;;;;6.00;2.75;;;;;;;22.77;58.60;101350.12;1753860;79;21016;-58
2021/10/14 07:05:25;;;;;;;5.53;3.10;;;;;;;22.76;58.55;101345.13;1743138;80;21091;-60
2021/10/14 07:07:51;;;;;;;8.63;3.30;;;;;;;22.77;58.54;101343.18;1754754;79;21055;-59
2021/10/14 07:10:17;;;;;;;24.23;9.45;;;;;;;22.79;58.53;101348.42;1755288;79;21262;-59
2021/10/14 07:12:43;;;;;;;29.87;15.10;;;;;;;22.78;58.48;101344.83;1750507;80;21517;-60
2021/10/14 07:15:09;;;;;;;116.05;35.80;;;;;;;22.79;58.43;101355.36;1750563;80;21077;-60
2021/10/14 07:17:36;;;;;;;47.67;16.90;;;;;;;22.78;58.40;101360.65;1750395;80;21078;-57
2021/10/14 07:20:05;;;;;;;65.00;26.60;;;;;;;22.76;58.41;101357.62;1752397;79;21608;-61
2021/10/14 07:22:31;;;;;;;198.15;68.02;;;;;;;22.75;58.35;101360.70;1754968;80;21482;-57
2021/10/14 07:24:57;;;;;;;68.07;23.10;;;;;;;22.72;58.34;101356.62;1748361;80;20917;-59
2021/10/14 07:27:23;;;;;;;355.95;119.72;;;;;;;22.69;58.33;101355.06;1759172;80;21455;-57
2021/10/14 07:29:49;;;;;;;92.12;31.48;;;;;;;22.65;58.35;101347.91;1757713;80;20928;-59
2021/10/14 07:32:15;;;;;;;155.55;53.08;;;;;;;22.62;58.38;101352.69;1757050;79;21021;-59
2021/10/14 07:34:41;;;;;;;59.00;20.37;;;;;;;22.62;58.42;101354.08;1750185;80;22478;-59
2021/10/14 07:37:07;;;;;;;65.85;23.73;;;;;;;22.61;58.44;101358.01;1735993;80;20886;-58
2021/10/14 07:39:34;;;;;;;55.95;20.12;;;;;;;22.60;58.42;101356.93;1744394;80;21482;-58
2021/10/14 07:42:00;;;;;;;52.88;22.32;;;;;;;22.63;58.46;101360.45;1752437;80;21057;-57
2021/10/14 07:44:26;;;;;;;14.47;5.67;;;;;;;22.66;58.53;101361.22;1744035;79;21134;-57
2021/10/14 07:46:52;;;;;;;5.37;2.90;;;;;;;22.68;58.65;101367.25;1749266;79;21636;-57
2021/10/14 07:49:18;;;;;;;6.37;3.52;;;;;;;22.68;58.70;101371.41;1753404;79;20917;-57
2021/10/14 07:51:45;;;;;;;7.17;3.40;;;;;;;22.66;58.72;101373.70;1750174;80;21557;-57
2021/10/14 07:54:11;;;;;;;4.95;2.90;;;;;;;22.65;58.71;101374.27;1744575;79;21095;-57
2021/10/14 07:56:37;;;;;;;6.90;3.95;;;;;;;22.63;58.69;101377.91;1758884;79;21116;-57
2021/10/14 07:59:04;;;;;;;9.93;4.15;;;;;;;22.62;58.65;101372.10;1754286;79;21678;-58
2021/10/14 08:01:30;;;;;;;6.30;3.20;;;;;;;22.59;58.65;101376.91;1754902;80;21002;-58
2021/10/14 08:03:56;;;;;;;5.87;3.15;;;;;;;22.58;58.65;101378.03;1750860;79;21080;-58
2021/10/14 08:06:23;;;;;;;4.60;3.02;;;;;;;22.58;58.60;101379.42;1750027;79;21158;-58
2021/10/14 08:08:49;;;;;;;6.28;3.00;;;;;;;22.57;58.62;101375.59;1745923;79;21181;-60
2021/10/14 08:11:16;;;;;;;134.25;35.05;;;;;;;22.56;58.63;101377.55;1737809;79;21370;-58
2021/10/14 08:13:42;;;;;;;177.35;47.00;;;;;;;22.56;58.63;101380.89;1740204;80;21079;-58
2021/10/14 08:16:08;;;;;;;116.12;29.35;;;;;;;22.54;58.62;101385.36;1758732;79;21054;-58
2021/10/14 08:18:34;;;;;;;158.42;47.75;;;;;;;22.54;58.62;101390.08;1756521;79;20996;-59
2021/10/14 08:21:00;;;;;;;60.60;16.75;;;;;;;22.52;58.64;101398.73;1750077;79;21513;-59
2021/10/14 08:23:27;;;;;;;21.07;6.78;;;;;;;22.51;58.65;101396.27;1756637;79;21397;-59
2021/10/14 08:25:54;;;;;;;7.58;3.95;;;;;;;22.47;58.65;101383.61;1750707;79;21621;-60
2021/10/14 08:28:20;;;;;;;7.85;3.90;;;;;;;22.48;58.69;101383.04;1747075;80;21055;-60
2021/10/14 08:30:47;;;;;;;54.50;17.42;;;;;;;22.49;58.77;101382.70;1730182;81;21502;-59
2021/10/14 08:33:14;;;;;;;45.43;13.55;;;;;;;22.52;58.92;101385.43;1756093;80;21087;-60
2021/10/14 08:35:41;;;;;;;30.27;9.60;;;;;;;22.54;59.04;101383.97;1742558;80;20943;-58
2021/10/14 08:38:08;;;;;;;108.67;30.37;;;;;;;22.57;59.05;101388.08;1755538;80;21041;-59
2021/10/14 08:40:35;;;;;;;72.15;21.48;;;;;;;22.58;59.05;101385.53;1748678;80;21005;-59
2021/10/14 08:43:05;;;;;;;90.67;31.70;;;;;;;22.59;59.00;101387.17;1752498;79;21512;-58
2021/10/14 08:45:39;;;;;;;136.50;56.75;;;;;;;22.61;58.95;101396.84;1763943;79;21080;-58
2021/10/14 08:48:05;;;;;;;234.05;96.53;;;;;;;22.60;58.92;101395.75;1758519;79;21188;-58
2021/10/14 08:50:34;;;;;;;493.60;210.55;;;;;;;22.58;58.88;101394.67;1747055;79;21047;-57
2021/10/14 08:53:00;;;;;;;182.60;59.08;;;;;;;22.56;58.85;101394.19;1741377;81;21022;-57
2021/10/14 08:55:30;;;;;;;83.92;27.75;;;;;;;22.55;58.83;101399.48;1750916;80;21060;-59
2021/10/14 08:57:57;;;;;;;32.45;10.63;;;;;;;22.54;58.84;101399.78;1754552;80;21031;-57
2021/10/14 09:00:23;;;;;;;14.13;4.87;;;;;;;22.51;58.86;101398.47;1725378;81;21140;-59
2021/10/14 09:02:50;;;;;;;50.03;20.82;;;;;;;22.51;58.89;101403.20;1750662;79;21691;-59
2021/10/14 09:05:16;;;;;;;23.85;9.10;;;;;;;22.50;58.94;101400.98;1757093;79;21120;-59
2021/10/14 09:07:42;;;;;;;32.93;13.62;;;;;;;22.52;59.02;101407.05;1754726;80;21509;-59
2021/10/14 09:10:12;;;;;;;12.40;5.85;;;;;;;22.53;59.13;101412.83;1743866;80;20992;-59
2021/10/14 09:12:45;;;;;;;105.20;33.28;;;;;;;22.56;59.31;101416.37;1759967;79;22025;-59
2021/10/14 09:15:13;;;;;;;97.15;31.65;;;;;;;22.57;59.46;101418.02;1751829;80;21104;-59
2021/10/14 09:17:48;;;;;;;165.80;51.88;;;;;;;22.61;59.62;101415.43;1751920;80;21086;-59
2021/10/14 09:20:25;;;;;;;1277.95;676.33;;;;;;;22.61;59.70;101420.98;1748083;80;21584;-59
2021/10/14 09:23:02;;;;;;;1444.43;732.20;;;;;;;22.61;59.71;101418.20;1740535;80;21119;-59
2021/10/14 09:25:44;;;;;;;1653.93;791.35;;;;;;;22.59;59.77;101417.12;1755620;80;21197;-58
2021/10/14 09:28:25;;;;;;;1986.10;847.63;;;;;;;22.58;59.79;101415.47;1754338;79;21458;-59
2021/10/14 09:31:05;;;;;;;1834.48;811.50;;;;;;;22.58;59.83;101420.20;1742247;80;21481;-58
2021/10/14 09:33:42;;;;;;;1763.18;787.20;;;;;;;22.56;59.85;101418.33;1751009;80;21020;-60
2021/10/14 09:36:22;;;;;;;1686.13;762.62;;;;;;;22.54;59.90;101425.56;1750783;79;21004;-59
2021/10/14 09:39:02;;;;;;;1701.63;746.77;;;;;;;22.52;59.93;101427.85;1743133;80;21155;-60
2021/10/14 09:41:25;;;;;;;1675.68;734.55;;;;;;;22.50;59.97;101421.78;1750479;80;21076;-59
2021/10/14 09:43:54;;;;;;;1474.93;663.22;;;;;;;22.47;60.00;101424.38;1741748;80;21130;-58
2021/10/14 09:46:49;;;;;;;1050.68;494.13;;;;;;;22.48;60.04;101421.30;1749650;80;21550;-59
2021/10/14 09:49:31;;;;;;;782.25;344.32;;;;;;;22.49;60.15;101424.30;1756005;79;21142;-60
2021/10/14 09:52:02;;;;;;;681.85;286.65;;;;;;;22.49;60.28;101421.52;1742442;80;21112;-59
2021/10/14 09:54:32;;;;;;;553.42;216.75;;;;;;;22.50;60.34;101414.03;1750651;79;20948;-59
2021/10/14 09:56:58;;;;;;;427.97;143.33;;;;;;;22.50;60.33;101418.19;1745456;79;21115;-60
2021/10/14 09:59:24;;;;;;;308.73;100.47;;;;;;;22.51;60.31;101415.11;1755996;79;21508;-60
2021/10/14 10:01:56;;;;;;;501.77;238.95;;;;;;;22.52;60.26;101411.77;1758605;79;21148;-59
2021/10/14 10:04:26;;;;;;;795.60;434.77;;;;;;;22.52;60.19;101415.38;1754928;79;21190;-59
2021/10/14 10:06:54;;;;;;;725.20;360.68;;;;;;;22.54;60.15;101413.65;1751242;80;21010;-59
2021/10/14 10:09:21;;;;;;;544.80;244.87;;;;;;;22.54;60.05;101414.47;1759220;79;21029;-60
2021/10/14 10:11:51;;;;;;;411.82;157.93;;;;;;;22.52;59.98;101411.21;1750700;80;21053;-58
2021/10/14 10:14:22;;;;;;;310.53;120.00;;;;;;;22.51;59.91;101405.41;1743689;79;21050;-59
2021/10/14 10:17:02;;;;;;;197.90;78.30;;;;;;;22.50;59.86;101415.42;1750831;81;21107;-59
2021/10/14 10:19:46;;;;;;;544.15;221.40;;;;;;;22.48;59.81;101412.98;1756749;79;21324;-59
2021/10/14 10:22:35;;;;;;;332.92;107.50;;;;;;;22.45;59.75;101407.25;1746156;79;21080;-61
2021/10/14 10:25:27;;;;;;;325.87;92.47;;;;;;;22.42;59.71;101410.06;1757530;79;21087;-62
2021/10/14 10:27:57;;;;;;;276.77;79.77;;;;;;;22.39;59.69;101410.70;1745895;80;21166;-62
2021/10/14 10:30:40;;;;;;;432.45;209.43;;;;;;;22.36;59.67;101405.80;1744891;79;21264;-62
2021/10/14 10:33:08;;;;;;;513.42;217.60;;;;;;;22.37;59.65;101411.58;1753668;79;21012;-61
2021/10/14 10:35:45;;;;;;;402.82;143.47;;;;;;;22.37;59.67;101408.80;1759862;79;21542;-60
2021/10/14 10:38:23;;;;;;;277.02;81.20;;;;;;;22.40;59.72;101408.20;1751133;80;21063;-61
2021/10/14 10:40:53;;;;;;;177.00;46.25;;;;;;;22.42;59.80;101407.86;1758776;80;36940;-63
2021/10/14 10:43:29;;;;;;;83.87;25.15;;;;;;;22.42;59.85;101410.06;1742654;80;21120;-56
2021/10/14 10:45:57;;;;;;;203.00;51.70;;;;;;;22.42;59.80;101398.98;1728270;81;21149;-61
2021/10/14 10:48:36;;;;;;;256.85;65.55;;;;;;;22.44;59.83;101400.06;1725700;79;21075;-62
2021/10/14 10:51:03;;;;;;;206.57;81.00;;;;;;;22.44;59.81;101389.80;1739662;80;21117;-61
2021/10/14 10:53:45;;;;;;;252.90;107.67;;;;;;;22.45;59.79;101396.16;1758687;79;21092;-61
2021/10/14 10:56:33;;;;;;;534.83;275.98;;;;;;;22.43;59.82;101396.47;1762342;80;20917;-61
2021/10/14 10:58:59;;;;;;;868.10;498.32;;;;;;;22.43;59.86;101391.48;1740990;80;21459;-60
2021/10/14 11:01:26;;;;;;;812.52;452.90;;;;;;;22.41;59.86;101390.97;1729211;81;21073;-61
2021/10/14 11:04:00;;;;;;;695.30;371.18;;;;;;;22.41;59.87;101390.97;1697837;81;21764;-61
2021/10/14 11:06:27;;;;;;;603.62;296.10;;;;;;;22.40;59.88;101389.34;1741711;80;21145;-61
2021/10/14 11:09:04;;;;;;;589.05;271.00;;;;;;;22.37;59.83;101389.40;1757496;79;21231;-60
2021/10/14 11:11:30;;;;;;;583.17;248.55;;;;;;;22.35;59.83;101394.45;1718394;81;21658;-62
2021/10/14 11:13:56;;;;;;;397.05;136.97;;;;;;;22.33;59.84;101393.37;1754835;80;21073;-59
2021/10/14 11:16:26;;;;;;;246.82;73.80;;;;;;;22.34;59.84;101403.90;1755879;80;21122;-60
2021/10/14 11:18:52;;;;;;;118.93;33.92;;;;;;;22.35;59.86;101401.38;1735927;80;21115;-59